createdAt,value
2023-03-26T00:01:37.483Z,3.80
2023-03-26T00:04:09.231Z,4.32
2023-03-26T00:06:40.337Z,4.60
2023-03-26T00:09:10.576Z,4.65
2023-03-26T00:11:38.790Z,4.40
2023-03-26T00:14:07.179Z,5.90
2023-03-26T00:16:35.403Z,2.83
2023-03-26T00:19:04.173Z,3.40
2023-03-26T00:21:33.798Z,3.05
2023-03-26T00:24:04.879Z,3.47
2023-03-26T00:26:33.815Z,4.07
2023-03-26T00:29:04.023Z,3.63
2023-03-26T00:31:32.611Z,4.03
2023-03-26T00:34:03.649Z,4.15
2023-03-26T00:36:35.823Z,4.25
2023-03-26T00:39:05.729Z,3.97
2023-03-26T00:41:37.159Z,4.32
2023-03-26T00:44:05.560Z,4.82
2023-03-26T00:46:33.787Z,4.05
2023-03-26T00:49:03.852Z,4.28
2023-03-26T00:51:34.139Z,4.63
2023-03-26T00:54:03.383Z,4.15
2023-03-26T00:56:31.772Z,2.95
2023-03-26T00:59:00.313Z,2.75
2023-03-26T01:01:30.512Z,4.43
2023-03-26T01:04:08.882Z,4.88
2023-03-26T01:06:42.349Z,5.35
2023-03-26T01:09:17.297Z,5.13
2023-03-26T01:11:46.429Z,4.30
2023-03-26T01:14:17.826Z,5.00
2023-03-26T01:16:50.089Z,4.78
2023-03-26T01:19:26.114Z,4.90
2023-03-26T01:21:55.533Z,4.30
2023-03-26T01:24:25.190Z,4.43
2023-03-26T01:27:09.696Z,4.07
2023-03-26T01:29:44.242Z,3.33
2023-03-26T01:32:24.399Z,3.40
2023-03-26T01:35:04.797Z,3.58
2023-03-26T01:37:40.926Z,3.42
2023-03-26T01:40:18.814Z,5.57
2023-03-26T01:42:53.363Z,4.30
2023-03-26T01:45:25.722Z,4.60
2023-03-26T01:47:54.539Z,5.18
2023-03-26T01:50:22.658Z,4.45
2023-03-26T01:52:51.038Z,4.90
2023-03-26T01:55:22.554Z,4.30
2023-03-26T01:58:01.048Z,5.40
2023-03-26T02:00:32.852Z,5.38
2023-03-26T02:03:18.121Z,4.20
2023-03-26T02:05:54.513Z,5.13
2023-03-26T02:08:31.748Z,6.47
2023-03-26T02:11:05.211Z,5.07
2023-03-26T02:13:33.623Z,3.40
2023-03-26T02:16:02.915Z,4.20
2023-03-26T02:18:36.505Z,3.35
2023-03-26T02:21:09.920Z,3.85
2023-03-26T02:23:38.590Z,4.00
2023-03-26T02:26:10.154Z,3.63
2023-03-26T02:28:38.822Z,3.20
2023-03-26T02:31:09.811Z,4.13
2023-03-26T02:33:38.928Z,2.55
2023-03-26T02:36:08.799Z,3.10
2023-03-26T02:38:36.782Z,3.92
2023-03-26T02:41:05.515Z,4.97
2023-03-26T02:43:34.940Z,4.88
2023-03-26T02:46:02.951Z,5.10
2023-03-26T02:48:31.394Z,4.72
2023-03-26T02:50:59.357Z,5.63
2023-03-26T02:53:29.960Z,4.93
2023-03-26T02:55:58.333Z,6.57
2023-03-26T02:58:26.691Z,5.57
2023-03-26T03:00:56.912Z,5.05
2023-03-26T03:03:25.773Z,5.43
2023-03-26T03:05:54.703Z,5.15
2023-03-26T03:08:24.453Z,4.88
2023-03-26T03:11:00.358Z,5.75
2023-03-26T03:13:28.790Z,5.53
2023-03-26T03:15:58.435Z,4.55
2023-03-26T03:18:26.606Z,5.13
2023-03-26T03:20:54.979Z,4.85
2023-03-26T03:23:23.000Z,5.18
2023-03-26T03:25:52.652Z,4.43
2023-03-26T03:28:21.677Z,4.45
2023-03-26T03:30:53.064Z,5.72
2023-03-26T03:33:22.468Z,5.07
2023-03-26T03:35:51.398Z,4.88
2023-03-26T03:38:19.508Z,3.63
2023-03-26T03:40:47.470Z,4.75
2023-03-26T03:43:15.380Z,5.07
2023-03-26T03:45:43.434Z,4.95
2023-03-26T03:48:11.423Z,5.07
2023-03-26T03:50:40.772Z,4.80
2023-03-26T03:53:08.675Z,5.82
2023-03-26T03:55:38.361Z,5.35
2023-03-26T03:58:09.139Z,3.60
2023-03-26T04:00:38.367Z,3.90
2023-03-26T04:03:06.695Z,3.13
2023-03-26T04:05:35.258Z,3.95
2023-03-26T04:08:04.706Z,4.63
2023-03-26T04:10:32.805Z,4.38
2023-03-26T04:13:01.113Z,5.63
2023-03-26T04:15:29.208Z,4.90
2023-03-26T04:17:57.221Z,4.53
2023-03-26T04:20:25.163Z,4.82
2023-03-26T04:22:53.280Z,3.65
2023-03-26T04:25:22.671Z,4.47
2023-03-26T04:27:50.616Z,4.60
2023-03-26T04:30:21.234Z,3.33
2023-03-26T04:32:49.556Z,4.03
2023-03-26T04:35:19.590Z,3.65
2023-03-26T04:37:48.197Z,3.90
2023-03-26T04:40:18.470Z,5.45
2023-03-26T04:42:47.875Z,6.00
2023-03-26T04:45:17.793Z,5.13
2023-03-26T04:47:46.722Z,4.70
2023-03-26T04:50:14.877Z,5.18
2023-03-26T04:52:45.099Z,5.15
2023-03-26T04:55:24.567Z,4.70
2023-03-26T04:57:59.851Z,5.97
2023-03-26T05:00:28.478Z,5.00
2023-03-26T05:02:57.944Z,5.22
2023-03-26T05:05:27.426Z,5.72
2023-03-26T05:07:55.382Z,4.13
2023-03-26T05:10:24.208Z,3.67
2023-03-26T05:12:52.382Z,3.60
2023-03-26T05:15:22.440Z,4.68
2023-03-26T05:17:51.345Z,6.00
2023-03-26T05:20:22.608Z,4.43
2023-03-26T05:22:52.064Z,4.13
2023-03-26T05:25:20.670Z,4.18
2023-03-26T05:27:48.971Z,4.07
2023-03-26T05:30:19.572Z,4.15
2023-03-26T05:32:50.369Z,4.47
2023-03-26T05:35:18.775Z,4.03
2023-03-26T05:37:48.091Z,4.75
2023-03-26T05:40:18.088Z,6.70
2023-03-26T05:42:46.572Z,6.50
2023-03-26T05:45:16.861Z,5.07
2023-03-26T05:47:45.396Z,7.00
2023-03-26T05:50:15.816Z,5.82
2023-03-26T05:52:44.810Z,6.07
2023-03-26T05:55:13.444Z,5.22
2023-03-26T05:57:42.777Z,5.88
2023-03-26T06:00:12.304Z,5.30
2023-03-26T06:02:42.304Z,5.47
2023-03-26T06:05:12.516Z,4.57
2023-03-26T06:07:41.950Z,6.32
2023-03-26T06:10:11.177Z,5.63
2023-03-26T06:12:46.703Z,6.15
2023-03-26T06:15:14.899Z,6.32
2023-03-26T06:17:45.046Z,6.78
2023-03-26T06:20:14.631Z,7.63
2023-03-26T06:22:44.367Z,7.65
2023-03-26T06:25:12.973Z,6.03
2023-03-26T06:27:41.006Z,6.38
2023-03-26T06:30:10.404Z,6.45
2023-03-26T06:32:38.981Z,5.95
2023-03-26T06:35:07.779Z,4.57
2023-03-26T06:37:39.120Z,5.45
2023-03-26T06:40:10.723Z,5.28
2023-03-26T06:43:07.761Z,6.95
2023-03-26T06:45:27.700Z,6.35
2023-03-26T06:47:56.116Z,6.25
2023-03-26T06:50:25.141Z,6.25
2023-03-26T06:52:55.083Z,5.95
2023-03-26T06:55:25.048Z,5.18
2023-03-26T06:57:54.537Z,5.07
2023-03-26T07:00:23.105Z,5.93
2023-03-26T07:02:51.214Z,6.25
2023-03-26T07:05:19.357Z,6.78
2023-03-26T07:07:48.455Z,5.03
2023-03-26T07:10:16.574Z,5.93
2023-03-26T07:12:46.084Z,7.45
2023-03-26T07:15:14.362Z,6.57
2023-03-26T07:17:42.387Z,6.53
2023-03-26T07:20:11.601Z,6.53
2023-03-26T07:22:40.228Z,5.40
2023-03-26T07:25:09.950Z,5.28
2023-03-26T07:27:45.633Z,5.03
2023-03-26T07:30:17.784Z,4.43
2023-03-26T07:32:58.639Z,5.13
2023-03-26T07:35:31.612Z,7.13
2023-03-26T07:38:16.599Z,7.70
2023-03-26T07:40:58.448Z,5.63
2023-03-26T07:43:40.661Z,6.55
2023-03-26T07:46:13.278Z,5.75
2023-03-26T07:48:43.820Z,4.93
2023-03-26T07:51:13.204Z,5.28
2023-03-26T07:53:48.035Z,4.38
2023-03-26T07:56:18.443Z,4.70
2023-03-26T07:58:58.696Z,6.40
2023-03-26T08:01:43.576Z,5.38
2023-03-26T08:04:43.943Z,6.18
2023-03-26T08:07:20.947Z,6.13
2023-03-26T08:10:01.192Z,5.03
2023-03-26T08:12:39.093Z,5.97
2023-03-26T08:15:15.159Z,6.32
2023-03-26T08:17:49.445Z,6.50
2023-03-26T08:20:32.157Z,5.85
2023-03-26T08:23:07.524Z,5.85
2023-03-26T08:25:38.175Z,5.95
2023-03-26T08:28:17.876Z,4.88
2023-03-26T08:30:47.151Z,5.25
2023-03-26T08:33:20.632Z,7.38
2023-03-26T08:35:50.124Z,6.47
2023-03-26T08:38:20.597Z,8.40
2023-03-26T08:41:25.293Z,10.18
2023-03-26T08:44:50.285Z,8.73
2023-03-26T08:47:55.747Z,8.10
2023-03-26T08:51:05.248Z,7.93
2023-03-26T08:54:20.779Z,6.70
2023-03-26T08:57:00.216Z,8.85
2023-03-26T09:00:06.742Z,6.15
2023-03-26T09:03:00.605Z,5.68
2023-03-26T09:05:54.908Z,6.07
2023-03-26T09:09:01.565Z,7.13
2023-03-26T09:12:03.062Z,6.32
2023-03-26T09:15:10.254Z,6.78
2023-03-26T09:18:31.514Z,5.88
2023-03-26T09:21:44.554Z,6.10
2023-03-26T09:24:38.986Z,6.68
2023-03-26T09:27:16.693Z,6.97
2023-03-26T09:30:36.952Z,8.32
2023-03-26T09:33:22.830Z,6.63
2023-03-26T09:35:56.465Z,6.88
2023-03-26T09:38:43.496Z,5.97
2023-03-26T09:41:18.029Z,5.00
2023-03-26T09:44:14.380Z,6.38
2023-03-26T09:46:54.739Z,6.47
2023-03-26T09:49:39.653Z,6.53
2023-03-26T09:52:21.759Z,5.85
2023-03-26T09:55:43.536Z,4.38
2023-03-26T09:58:35.623Z,5.32
2023-03-26T10:01:11.170Z,5.57
2023-03-26T10:03:49.699Z,5.18
2023-03-26T10:06:34.416Z,5.05
2023-03-26T10:09:22.060Z,5.72
2023-03-26T10:12:06.166Z,4.82
2023-03-26T10:14:42.283Z,4.85
2023-03-26T10:17:28.858Z,4.10
2023-03-26T10:20:13.497Z,5.20
2023-03-26T10:22:54.045Z,4.03
2023-03-26T10:25:40.083Z,4.70
2023-03-26T10:28:24.821Z,4.47
2023-03-26T10:31:09.943Z,4.72
2023-03-26T10:33:52.302Z,4.15
2023-03-26T10:36:30.942Z,6.40
2023-03-26T10:39:37.836Z,5.53
2023-03-26T10:42:21.241Z,4.63
2023-03-26T10:45:11.055Z,4.85
2023-03-26T10:48:14.770Z,5.80
2023-03-26T10:50:55.274Z,4.65
2023-03-26T10:53:37.373Z,4.32
2023-03-26T10:56:15.852Z,4.60
2023-03-26T10:58:48.543Z,3.30
2023-03-26T11:01:25.283Z,4.75
2023-03-26T11:03:56.625Z,5.80
2023-03-26T11:06:33.627Z,6.38
2023-03-26T11:09:16.316Z,5.57
2023-03-26T11:11:48.855Z,4.05
2023-03-26T11:14:33.819Z,5.25
2023-03-26T11:17:14.801Z,4.72
2023-03-26T11:20:06.285Z,3.63
2023-03-26T11:22:45.383Z,4.72
2023-03-26T11:25:35.887Z,2.70
2023-03-26T11:28:24.669Z,3.88
2023-03-26T11:31:00.249Z,3.13
2023-03-26T11:33:34.088Z,2.38
2023-03-26T11:36:07.900Z,3.42
2023-03-26T11:38:40.313Z,3.30
2023-03-26T11:41:16.103Z,3.85
2023-03-26T11:43:57.678Z,4.05
2023-03-26T11:46:28.600Z,5.28
2023-03-26T11:48:59.906Z,2.97
2023-03-26T11:51:36.301Z,3.50
2023-03-26T11:54:06.473Z,3.55
2023-03-26T11:56:38.968Z,3.58
2023-03-26T11:59:25.895Z,5.00
2023-03-26T12:01:58.620Z,5.03
2023-03-26T12:04:30.690Z,3.35
2023-03-26T12:07:10.935Z,3.75
2023-03-26T12:09:39.394Z,3.17
2023-03-26T12:12:08.149Z,4.57
2023-03-26T12:14:36.441Z,4.45
2023-03-26T12:17:09.332Z,4.35
2023-03-26T12:19:40.906Z,2.72
2023-03-26T12:22:30.314Z,5.35
2023-03-26T12:25:16.712Z,3.47
2023-03-26T12:27:46.483Z,4.28
2023-03-26T12:30:22.545Z,5.15
2023-03-26T12:32:53.334Z,4.57
2023-03-26T12:35:27.384Z,5.72
2023-03-26T12:38:13.770Z,4.68
2023-03-26T12:40:43.088Z,4.18
2023-03-26T12:44:54.325Z,4.90
2023-03-26T12:47:54.538Z,5.13
2023-03-26T12:49:17.560Z,3.25
2023-03-26T12:51:51.863Z,4.90
2023-03-26T12:54:47.157Z,4.00
2023-03-26T12:57:22.841Z,3.50
2023-03-26T13:00:10.968Z,3.65
2023-03-26T13:03:13.380Z,4.47
2023-03-26T13:05:55.820Z,3.80
2023-03-26T13:08:46.859Z,3.70
2023-03-26T13:11:24.753Z,3.45
2023-03-26T13:14:20.515Z,3.63
2023-03-26T13:16:57.085Z,5.00
2023-03-26T13:19:34.307Z,4.75
2023-03-26T13:22:16.777Z,5.55
2023-03-26T13:24:52.906Z,4.22
2023-03-26T13:27:36.806Z,3.67
2023-03-26T13:30:16.447Z,3.75
2023-03-26T13:32:59.477Z,3.30
2023-03-26T13:35:34.562Z,3.25
2023-03-26T13:38:13.139Z,4.13
2023-03-26T13:40:52.803Z,3.83
2023-03-26T13:43:33.752Z,5.57
2023-03-26T13:46:08.663Z,6.97
2023-03-26T13:48:43.090Z,5.50
2023-03-26T13:51:16.739Z,5.13
2023-03-26T13:53:54.520Z,5.30
2023-03-26T13:56:27.991Z,5.25
2023-03-26T13:59:01.709Z,4.90
2023-03-26T14:01:35.297Z,3.95
2023-03-26T14:04:09.630Z,6.28
2023-03-26T14:06:46.580Z,4.15
2023-03-26T14:09:20.760Z,5.00
2023-03-26T14:11:59.395Z,5.03
2023-03-26T14:14:38.529Z,4.47
2023-03-26T14:17:15.059Z,4.97
2023-03-26T14:20:22.051Z,5.32
2023-03-26T14:23:06.338Z,5.80
2023-03-26T14:25:51.220Z,6.05
2023-03-26T14:28:44.151Z,6.30
2023-03-26T14:31:23.806Z,4.32
2023-03-26T14:34:07.141Z,5.75
2023-03-26T14:37:05.939Z,4.90
2023-03-26T14:39:55.560Z,3.95
2023-03-26T14:42:31.118Z,4.20
2023-03-26T14:45:26.567Z,4.07
2023-03-26T14:48:18.575Z,3.38
2023-03-26T14:51:03.044Z,4.55
2023-03-26T14:53:34.557Z,3.90
2023-03-26T14:56:35.943Z,3.63
2023-03-26T14:59:32.747Z,4.95
2023-03-26T15:02:36.862Z,4.35
2023-03-26T15:05:42.394Z,3.63
2023-03-26T15:08:46.092Z,4.68
2023-03-26T15:11:25.951Z,3.58
2023-03-26T15:14:05.336Z,4.05
2023-03-26T15:17:09.640Z,3.92
2023-03-26T15:20:05.395Z,4.20
2023-03-26T15:23:07.884Z,3.88
2023-03-26T15:26:31.689Z,4.30
2023-03-26T15:29:27.122Z,3.80
2023-03-26T15:32:22.380Z,4.28
2023-03-26T15:35:33.454Z,4.65
2023-03-26T15:38:38.548Z,4.68
2023-03-26T15:41:20.237Z,4.40
2023-03-26T15:44:25.654Z,4.82
2023-03-26T15:47:13.280Z,4.13
2023-03-26T15:49:44.308Z,5.85
2023-03-26T15:52:25.205Z,5.72
2023-03-26T15:55:02.462Z,4.60
2023-03-26T15:57:34.614Z,5.53
2023-03-26T16:00:22.828Z,5.65
2023-03-26T16:03:17.649Z,6.05
2023-03-26T16:06:14.330Z,6.43
2023-03-26T16:08:53.156Z,5.97
2023-03-26T16:11:54.329Z,5.05
2023-03-26T16:14:24.809Z,5.38
2023-03-26T16:16:57.544Z,5.95
2023-03-26T16:19:59.504Z,5.93
2023-03-26T16:22:43.853Z,5.35
2023-03-26T16:25:30.654Z,5.55
2023-03-26T16:28:23.509Z,5.10
2023-03-26T16:31:37.554Z,5.95
2023-03-26T16:34:27.499Z,6.53
2023-03-26T16:36:56.145Z,7.00
2023-03-26T16:39:26.456Z,7.35
2023-03-26T16:42:06.220Z,7.32
2023-03-26T16:44:50.134Z,6.63
2023-03-26T16:47:26.481Z,6.22
2023-03-26T16:50:13.415Z,5.72
2023-03-26T16:52:51.978Z,5.47
2023-03-26T16:55:26.519Z,6.35
2023-03-26T16:57:59.344Z,5.13
2023-03-26T17:00:44.965Z,9.00
2023-03-26T17:03:29.122Z,7.20
2023-03-26T17:06:06.570Z,5.75
2023-03-26T17:08:48.078Z,5.35
2023-03-26T17:11:30.371Z,3.22
2023-03-26T17:14:07.429Z,4.13
2023-03-26T17:16:41.692Z,3.72
2023-03-26T17:19:24.224Z,7.50
2023-03-26T17:22:04.572Z,2.53
2023-03-26T17:24:44.308Z,3.55
2023-03-26T17:27:27.915Z,3.28
2023-03-26T17:30:05.450Z,3.67
2023-03-26T17:32:56.646Z,3.65
2023-03-26T17:35:40.781Z,4.18
2023-03-26T17:38:51.195Z,5.32
2023-03-26T17:41:52.233Z,4.90
2023-03-26T17:44:38.791Z,4.57
2023-03-26T17:47:15.297Z,4.32
2023-03-26T17:49:45.703Z,3.80
2023-03-26T17:52:19.691Z,3.35
2023-03-26T17:54:52.054Z,5.85
2023-03-26T17:57:24.859Z,5.57
2023-03-26T17:59:58.479Z,6.47
2023-03-26T18:02:36.113Z,4.90
2023-03-26T18:05:09.655Z,7.20
2023-03-26T18:08:11.147Z,5.88
2023-03-26T18:11:07.890Z,5.30
2023-03-26T18:14:09.403Z,4.82
2023-03-26T18:16:41.360Z,5.20
2023-03-26T18:19:18.417Z,5.00
2023-03-26T18:21:50.515Z,4.18
2023-03-26T18:24:21.840Z,3.75
2023-03-26T18:26:56.116Z,4.78
2023-03-26T18:29:25.450Z,5.00
2023-03-26T18:32:00.619Z,4.30
2023-03-26T18:34:31.579Z,5.13
2023-03-26T18:37:14.860Z,5.88
2023-03-26T18:39:43.094Z,5.53
2023-03-26T18:42:23.578Z,5.47
2023-03-26T18:44:54.428Z,4.72
2023-03-26T18:47:30.141Z,4.15
2023-03-26T18:49:59.537Z,3.47
2023-03-26T18:52:31.371Z,3.35
2023-03-26T18:55:00.940Z,3.85
2023-03-26T18:57:31.462Z,3.47
2023-03-26T19:00:18.711Z,3.33
2023-03-26T19:02:49.842Z,3.38
2023-03-26T19:05:20.121Z,4.47
2023-03-26T19:07:49.009Z,3.55
2023-03-26T19:10:22.155Z,3.92
2023-03-26T19:12:59.542Z,4.57
2023-03-26T19:15:29.483Z,4.20
2023-03-26T19:18:07.075Z,4.38
2023-03-26T19:20:46.731Z,4.97
2023-03-26T19:23:17.852Z,4.63
2023-03-26T19:25:48.992Z,3.90
2023-03-26T19:28:21.604Z,3.72
2023-03-26T19:30:56.535Z,4.05
2023-03-26T19:33:26.225Z,3.67
2023-03-26T19:36:03.444Z,3.67
2023-03-26T19:38:41.451Z,3.53
2023-03-26T19:41:21.502Z,3.35
2023-03-26T19:43:51.969Z,3.50
2023-03-26T19:46:22.687Z,4.85
2023-03-26T19:48:53.365Z,4.55
2023-03-26T19:51:24.161Z,4.45
2023-03-26T19:53:56.591Z,3.40
2023-03-26T19:56:29.999Z,2.40
2023-03-26T19:58:59.816Z,1.73
2023-03-26T20:01:30.143Z,2.60
2023-03-26T20:04:02.078Z,2.92
2023-03-26T20:06:42.443Z,2.90
2023-03-26T20:09:12.153Z,3.75
2023-03-26T20:11:40.911Z,3.75
2023-03-26T20:14:17.102Z,3.60
2023-03-26T20:16:46.364Z,2.80
2023-03-26T20:19:16.749Z,3.28
2023-03-26T20:21:46.010Z,3.40
2023-03-26T20:24:16.892Z,3.58
2023-03-26T20:26:45.401Z,3.25
2023-03-26T20:29:19.830Z,3.17
2023-03-26T20:31:48.627Z,3.22
2023-03-26T20:34:19.984Z,3.58
2023-03-26T20:36:54.484Z,3.65
2023-03-26T20:39:22.988Z,3.95
2023-03-26T20:41:55.151Z,2.95
2023-03-26T20:44:29.209Z,3.53
2023-03-26T20:46:59.126Z,3.55
2023-03-26T20:49:29.464Z,3.58
2023-03-26T20:51:57.822Z,3.10
2023-03-26T20:54:27.397Z,2.55
2023-03-26T20:56:55.441Z,3.88
2023-03-26T20:59:27.801Z,2.70
2023-03-26T21:01:59.230Z,2.72
2023-03-26T21:04:28.270Z,2.40
2023-03-26T21:07:07.135Z,3.20
2023-03-26T21:09:39.722Z,3.10
2023-03-26T21:12:09.939Z,1.95
2023-03-26T21:14:44.415Z,2.33
2023-03-26T21:17:18.747Z,1.83
2023-03-26T21:19:47.697Z,2.78
2023-03-26T21:22:28.989Z,2.08
2023-03-26T21:25:06.228Z,3.00
2023-03-26T21:27:46.115Z,2.90
2023-03-26T21:30:17.722Z,2.63
2023-03-26T21:32:47.017Z,3.10
2023-03-26T21:35:16.274Z,4.18
2023-03-26T21:37:48.666Z,3.30
2023-03-26T21:40:18.696Z,3.60
2023-03-26T21:42:48.396Z,4.53
2023-03-26T21:45:19.678Z,4.15
2023-03-26T21:47:48.850Z,3.90
2023-03-26T21:50:19.368Z,3.13
2023-03-26T21:52:48.438Z,3.47
2023-03-26T21:55:18.881Z,4.38
2023-03-26T21:58:16.790Z,3.30
2023-03-26T22:00:59.181Z,3.85
2023-03-26T22:03:38.244Z,2.90
2023-03-26T22:06:11.660Z,4.05
2023-03-26T22:08:41.608Z,3.58
2023-03-26T22:11:11.252Z,3.17
2023-03-26T22:13:39.379Z,3.38
2023-03-26T22:16:11.755Z,4.47
2023-03-26T22:18:39.665Z,3.28
2023-03-26T22:21:07.925Z,3.22
2023-03-26T22:23:36.635Z,3.28
2023-03-26T22:26:05.893Z,3.08
2023-03-26T22:28:33.910Z,4.38
2023-03-26T22:31:09.195Z,3.53
2023-03-26T22:33:37.315Z,3.15
2023-03-26T22:36:05.946Z,3.53
2023-03-26T22:38:54.337Z,2.42
2023-03-26T22:41:22.556Z,3.47
2023-03-26T22:43:52.227Z,3.50
2023-03-26T22:46:22.541Z,3.38
2023-03-26T22:48:51.397Z,2.83
2023-03-26T22:51:19.989Z,3.05
2023-03-26T22:53:48.469Z,4.05
2023-03-26T22:56:17.301Z,3.80
2023-03-26T22:58:47.777Z,3.20
2023-03-26T23:01:18.913Z,2.70
2023-03-26T23:03:48.397Z,3.75
2023-03-26T23:06:17.238Z,4.13
2023-03-26T23:08:45.677Z,3.92
2023-03-26T23:11:16.241Z,3.30
2023-03-26T23:13:45.644Z,3.15
2023-03-26T23:16:14.890Z,3.60
2023-03-26T23:18:43.349Z,4.80
2023-03-26T23:21:17.096Z,3.08
2023-03-26T23:23:45.694Z,3.83
2023-03-26T23:26:14.563Z,3.95
2023-03-26T23:28:43.388Z,5.32
2023-03-26T23:31:13.090Z,4.18
2023-03-26T23:33:46.209Z,5.47
2023-03-26T23:36:18.934Z,3.67
2023-03-26T23:38:48.586Z,4.00
2023-03-26T23:41:17.995Z,3.05
2023-03-26T23:43:54.286Z,4.93
2023-03-26T23:46:25.051Z,3.72
2023-03-26T23:48:55.114Z,5.13
2023-03-26T23:51:24.984Z,5.13
2023-03-26T23:53:53.950Z,4.80
2023-03-26T23:56:22.224Z,4.70
2023-03-26T23:58:50.152Z,4.53
